Athens, Georgia
Current Conditions -  °F | °C
As of 11:51 AM on Tuesday 21 Oct 2014 (Local Time) from KAHN Reporting Station
Clear Clear  
Wind Chill: 70°   Ceiling: Unl
Heat Index: 70°   Visibility: 10mi
Dew Point: 53°   Wind: 7mph
Humidity: 55%   Direction: 350°N
Pressure: 30"   Gusts: NA
Location:  33.96°N, 83.37°W
Report Text: KAHN 211551Z 35006KT 10SM CLR 21/12 A3000 RMK AO2 SLP157 T02110117
Loading
Personal Weather Stations






























Interactive Weather Map
Tropical Storm Tracking
New forecast layout! Learn more

10-Day Weather Forecast

Advertisements
Track Severe Weather on mobile